sensor_id;sensor_type;location;lat;lon;timestamp;P1;durP1;ratioP1;P2;durP2;ratioP2
59434;SDS011;45241;49.768;8.636;2023-03-25T00:00:14;1.35;;;0.68;;
59434;SDS011;45241;49.768;8.636;2023-03-25T00:02:42;1.33;;;0.50;;
59434;SDS011;45241;49.768;8.636;2023-03-25T00:05:09;3.47;;;0.75;;
59434;SDS011;45241;49.768;8.636;2023-03-25T00:07:38;1.37;;;0.83;;
59434;SDS011;45241;49.768;8.636;2023-03-25T00:10:04;3.33;;;0.75;;
59434;SDS011;45241;49.768;8.636;2023-03-25T00:12:30;3.55;;;0.70;;
59434;SDS011;45241;49.768;8.636;2023-03-25T00:14:55;1.63;;;0.70;;
59434;SDS011;45241;49.768;8.636;2023-03-25T00:17:22;1.75;;;0.57;;
59434;SDS011;45241;49.768;8.636;2023-03-25T00:19:56;1.88;;;0.40;;
59434;SDS011;45241;49.768;8.636;2023-03-25T00:22:29;2.95;;;0.50;;
59434;SDS011;45241;49.768;8.636;2023-03-25T00:24:55;1.75;;;0.47;;
59434;SDS011;45241;49.768;8.636;2023-03-25T00:27:20;1.80;;;0.30;;
59434;SDS011;45241;49.768;8.636;2023-03-25T00:29:45;0.55;;;0.13;;
59434;SDS011;45241;49.768;8.636;2023-03-25T00:32:11;1.35;;;0.50;;
59434;SDS011;45241;49.768;8.636;2023-03-25T00:34:39;2.05;;;0.50;;
59434;SDS011;45241;49.768;8.636;2023-03-25T00:37:11;1.80;;;0.38;;
59434;SDS011;45241;49.768;8.636;2023-03-25T00:39:37;0.95;;;0.20;;
59434;SDS011;45241;49.768;8.636;2023-03-25T00:42:03;0.45;;;0.28;;
59434;SDS011;45241;49.768;8.636;2023-03-25T00:44:29;2.42;;;0.50;;
59434;SDS011;45241;49.768;8.636;2023-03-25T00:46:55;4.10;;;0.38;;
59434;SDS011;45241;49.768;8.636;2023-03-25T00:49:20;0.43;;;0.25;;
59434;SDS011;45241;49.768;8.636;2023-03-25T00:51:49;1.50;;;0.40;;
59434;SDS011;45241;49.768;8.636;2023-03-25T00:54:16;2.28;;;0.55;;
59434;SDS011;45241;49.768;8.636;2023-03-25T00:56:42;2.53;;;0.60;;
59434;SDS011;45241;49.768;8.636;2023-03-25T00:59:07;2.95;;;0.50;;
59434;SDS011;45241;49.768;8.636;2023-03-25T01:01:33;2.50;;;0.60;;
59434;SDS011;45241;49.768;8.636;2023-03-25T01:06:31;3.67;;;1.00;;
59434;SDS011;45241;49.768;8.636;2023-03-25T01:08:59;5.03;;;0.70;;
59434;SDS011;45241;49.768;8.636;2023-03-25T01:11:27;2.35;;;0.57;;
59434;SDS011;45241;49.768;8.636;2023-03-25T01:13:55;4.55;;;0.63;;
59434;SDS011;45241;49.768;8.636;2023-03-25T01:16:23;5.00;;;0.88;;
59434;SDS011;45241;49.768;8.636;2023-03-25T01:18:49;4.28;;;0.80;;
59434;SDS011;45241;49.768;8.636;2023-03-25T01:21:15;4.93;;;0.68;;
59434;SDS011;45241;49.768;8.636;2023-03-25T01:23:40;3.85;;;0.88;;
59434;SDS011;45241;49.768;8.636;2023-03-25T01:26:06;3.13;;;0.70;;
59434;SDS011;45241;49.768;8.636;2023-03-25T01:28:31;2.72;;;0.63;;
59434;SDS011;45241;49.768;8.636;2023-03-25T01:31:00;2.80;;;0.70;;
59434;SDS011;45241;49.768;8.636;2023-03-25T01:33:30;4.43;;;0.57;;
59434;SDS011;45241;49.768;8.636;2023-03-25T01:35:56;4.60;;;0.80;;
59434;SDS011;45241;49.768;8.636;2023-03-25T01:38:21;5.15;;;0.70;;
59434;SDS011;45241;49.768;8.636;2023-03-25T01:40:47;2.58;;;0.52;;
59434;SDS011;45241;49.768;8.636;2023-03-25T01:43:15;5.43;;;0.70;;
59434;SDS011;45241;49.768;8.636;2023-03-25T01:45:40;5.55;;;0.77;;
59434;SDS011;45241;49.768;8.636;2023-03-25T01:48:10;4.60;;;0.70;;
59434;SDS011;45241;49.768;8.636;2023-03-25T01:50:37;4.72;;;0.77;;
59434;SDS011;45241;49.768;8.636;2023-03-25T01:53:07;4.07;;;0.68;;
59434;SDS011;45241;49.768;8.636;2023-03-25T01:55:33;4.38;;;0.65;;
59434;SDS011;45241;49.768;8.636;2023-03-25T01:58:00;3.70;;;0.75;;
59434;SDS011;45241;49.768;8.636;2023-03-25T02:00:31;4.15;;;0.82;;
59434;SDS011;45241;49.768;8.636;2023-03-25T02:02:58;3.63;;;0.70;;
59434;SDS011;45241;49.768;8.636;2023-03-25T02:06:11;4.13;;;0.65;;
59434;SDS011;45241;49.768;8.636;2023-03-25T02:08:21;3.30;;;0.60;;
59434;SDS011;45241;49.768;8.636;2023-03-25T02:10:47;5.40;;;0.70;;
59434;SDS011;45241;49.768;8.636;2023-03-25T02:13:13;3.20;;;0.70;;
59434;SDS011;45241;49.768;8.636;2023-03-25T02:15:46;5.88;;;0.65;;
59434;SDS011;45241;49.768;8.636;2023-03-25T02:18:33;3.73;;;0.60;;
59434;SDS011;45241;49.768;8.636;2023-03-25T02:21:13;2.92;;;0.55;;
59434;SDS011;45241;49.768;8.636;2023-03-25T02:24:07;2.38;;;0.45;;
59434;SDS011;45241;49.768;8.636;2023-03-25T02:32:50;1.20;;;0.30;;
59434;SDS011;45241;49.768;8.636;2023-03-25T02:35:39;1.55;;;0.22;;
59434;SDS011;45241;49.768;8.636;2023-03-25T02:43:51;0.20;;;0.20;;
59434;SDS011;45241;49.768;8.636;2023-03-25T02:46:20;1.52;;;0.10;;
59434;SDS011;45241;49.768;8.636;2023-03-25T02:48:54;0.52;;;0.32;;
59434;SDS011;45241;49.768;8.636;2023-03-25T02:51:34;1.80;;;0.20;;
59434;SDS011;45241;49.768;8.636;2023-03-25T02:54:06;0.70;;;0.20;;
59434;SDS011;45241;49.768;8.636;2023-03-25T02:56:36;1.25;;;0.20;;
59434;SDS011;45241;49.768;8.636;2023-03-25T02:59:03;1.08;;;0.10;;
59434;SDS011;45241;49.768;8.636;2023-03-25T03:01:30;1.27;;;0.20;;
59434;SDS011;45241;49.768;8.636;2023-03-25T03:03:58;0.17;;;0.10;;
59434;SDS011;45241;49.768;8.636;2023-03-25T03:06:23;0.30;;;0.10;;
59434;SDS011;45241;49.768;8.636;2023-03-25T03:11:24;2.53;;;0.52;;
59434;SDS011;45241;49.768;8.636;2023-03-25T03:13:58;0.90;;;0.20;;
59434;SDS011;45241;49.768;8.636;2023-03-25T03:17:06;0.75;;;0.30;;
59434;SDS011;45241;49.768;8.636;2023-03-25T03:19:48;1.08;;;0.30;;
59434;SDS011;45241;49.768;8.636;2023-03-25T03:22:46;1.85;;;0.38;;
59434;SDS011;45241;49.768;8.636;2023-03-25T03:28:10;0.85;;;0.30;;
59434;SDS011;45241;49.768;8.636;2023-03-25T03:31:06;2.15;;;0.40;;
59434;SDS011;45241;49.768;8.636;2023-03-25T03:33:51;0.93;;;0.40;;
59434;SDS011;45241;49.768;8.636;2023-03-25T03:36:23;1.15;;;0.38;;
59434;SDS011;45241;49.768;8.636;2023-03-25T03:38:59;2.75;;;0.50;;
59434;SDS011;45241;49.768;8.636;2023-03-25T03:41:35;1.95;;;0.60;;
59434;SDS011;45241;49.768;8.636;2023-03-25T03:44:06;1.75;;;0.47;;
59434;SDS011;45241;49.768;8.636;2023-03-25T03:49:20;0.88;;;0.32;;
59434;SDS011;45241;49.768;8.636;2023-03-25T03:52:02;3.42;;;0.65;;
59434;SDS011;45241;49.768;8.636;2023-03-25T03:54:41;2.58;;;0.50;;
59434;SDS011;45241;49.768;8.636;2023-03-25T03:57:20;1.70;;;0.52;;
59434;SDS011;45241;49.768;8.636;2023-03-25T04:02:49;2.70;;;0.63;;
59434;SDS011;45241;49.768;8.636;2023-03-25T04:05:21;1.45;;;0.50;;
59434;SDS011;45241;49.768;8.636;2023-03-25T04:07:51;3.35;;;0.70;;
59434;SDS011;45241;49.768;8.636;2023-03-25T04:10:22;2.90;;;0.60;;
59434;SDS011;45241;49.768;8.636;2023-03-25T04:12:58;2.22;;;0.73;;
59434;SDS011;45241;49.768;8.636;2023-03-25T04:15:26;2.10;;;0.55;;
59434;SDS011;45241;49.768;8.636;2023-03-25T04:17:51;3.35;;;0.68;;
59434;SDS011;45241;49.768;8.636;2023-03-25T04:20:21;1.27;;;0.60;;
59434;SDS011;45241;49.768;8.636;2023-03-25T04:22:50;3.38;;;0.68;;
59434;SDS011;45241;49.768;8.636;2023-03-25T04:25:16;1.83;;;0.60;;
59434;SDS011;45241;49.768;8.636;2023-03-25T04:27:42;2.63;;;0.60;;
59434;SDS011;45241;49.768;8.636;2023-03-25T04:30:09;2.72;;;0.60;;
59434;SDS011;45241;49.768;8.636;2023-03-25T04:32:35;1.00;;;0.50;;
59434;SDS011;45241;49.768;8.636;2023-03-25T04:35:01;2.65;;;0.93;;
59434;SDS011;45241;49.768;8.636;2023-03-25T04:37:27;3.53;;;0.40;;
59434;SDS011;45241;49.768;8.636;2023-03-25T04:39:52;3.22;;;0.60;;
59434;SDS011;45241;49.768;8.636;2023-03-25T04:42:20;3.05;;;0.60;;
59434;SDS011;45241;49.768;8.636;2023-03-25T04:44:49;2.75;;;1.05;;
59434;SDS011;45241;49.768;8.636;2023-03-25T04:47:22;2.65;;;0.70;;
59434;SDS011;45241;49.768;8.636;2023-03-25T04:49:48;4.72;;;0.47;;
59434;SDS011;45241;49.768;8.636;2023-03-25T04:52:14;4.90;;;0.90;;
59434;SDS011;45241;49.768;8.636;2023-03-25T04:54:40;2.58;;;0.75;;
59434;SDS011;45241;49.768;8.636;2023-03-25T04:57:06;3.90;;;0.57;;
59434;SDS011;45241;49.768;8.636;2023-03-25T04:59:32;2.78;;;0.50;;
59434;SDS011;45241;49.768;8.636;2023-03-25T05:01:58;2.17;;;0.60;;
59434;SDS011;45241;49.768;8.636;2023-03-25T05:04:26;2.88;;;0.63;;
59434;SDS011;45241;49.768;8.636;2023-03-25T05:06:51;1.88;;;0.47;;
59434;SDS011;45241;49.768;8.636;2023-03-25T05:09:18;3.30;;;0.68;;
59434;SDS011;45241;49.768;8.636;2023-03-25T05:11:46;3.13;;;0.80;;
59434;SDS011;45241;49.768;8.636;2023-03-25T05:14:12;2.17;;;0.73;;
59434;SDS011;45241;49.768;8.636;2023-03-25T05:16:39;2.83;;;0.50;;
59434;SDS011;45241;49.768;8.636;2023-03-25T05:19:05;4.00;;;0.70;;
59434;SDS011;45241;49.768;8.636;2023-03-25T05:21:34;5.07;;;0.80;;
59434;SDS011;45241;49.768;8.636;2023-03-25T05:24:02;2.35;;;0.70;;
59434;SDS011;45241;49.768;8.636;2023-03-25T05:26:32;2.63;;;0.60;;
59434;SDS011;45241;49.768;8.636;2023-03-25T05:29:01;4.00;;;1.08;;
59434;SDS011;45241;49.768;8.636;2023-03-25T05:31:32;3.78;;;0.80;;
59434;SDS011;45241;49.768;8.636;2023-03-25T05:33:57;2.97;;;0.60;;
59434;SDS011;45241;49.768;8.636;2023-03-25T05:36:23;2.22;;;0.75;;
59434;SDS011;45241;49.768;8.636;2023-03-25T05:38:52;4.07;;;0.75;;
59434;SDS011;45241;49.768;8.636;2023-03-25T05:41:18;2.25;;;0.60;;
59434;SDS011;45241;49.768;8.636;2023-03-25T05:43:45;6.15;;;0.75;;
59434;SDS011;45241;49.768;8.636;2023-03-25T05:46:11;1.58;;;0.60;;
59434;SDS011;45241;49.768;8.636;2023-03-25T05:48:38;2.88;;;0.68;;
59434;SDS011;45241;49.768;8.636;2023-03-25T05:51:05;2.97;;;1.00;;
59434;SDS011;45241;49.768;8.636;2023-03-25T05:53:45;3.70;;;0.70;;
59434;SDS011;45241;49.768;8.636;2023-03-25T05:56:14;8.10;;;0.90;;
59434;SDS011;45241;49.768;8.636;2023-03-25T05:58:42;8.57;;;1.02;;
59434;SDS011;45241;49.768;8.636;2023-03-25T06:01:09;4.15;;;0.90;;
59434;SDS011;45241;49.768;8.636;2023-03-25T06:03:34;3.70;;;0.75;;
59434;SDS011;45241;49.768;8.636;2023-03-25T06:06:00;3.42;;;0.93;;
59434;SDS011;45241;49.768;8.636;2023-03-25T06:08:26;4.78;;;0.95;;
59434;SDS011;45241;49.768;8.636;2023-03-25T06:10:54;3.75;;;0.70;;
59434;SDS011;45241;49.768;8.636;2023-03-25T06:13:22;3.25;;;0.80;;
59434;SDS011;45241;49.768;8.636;2023-03-25T06:15:47;3.65;;;0.80;;
59434;SDS011;45241;49.768;8.636;2023-03-25T06:18:12;5.05;;;0.80;;
59434;SDS011;45241;49.768;8.636;2023-03-25T06:20:38;5.82;;;1.20;;
59434;SDS011;45241;49.768;8.636;2023-03-25T06:23:03;4.00;;;0.70;;
59434;SDS011;45241;49.768;8.636;2023-03-25T06:25:29;4.70;;;0.90;;
59434;SDS011;45241;49.768;8.636;2023-03-25T06:27:55;6.88;;;1.10;;
59434;SDS011;45241;49.768;8.636;2023-03-25T06:30:22;5.53;;;1.05;;
59434;SDS011;45241;49.768;8.636;2023-03-25T06:32:47;4.57;;;0.98;;
59434;SDS011;45241;49.768;8.636;2023-03-25T06:35:14;6.82;;;1.20;;
59434;SDS011;45241;49.768;8.636;2023-03-25T06:37:43;3.75;;;1.00;;
59434;SDS011;45241;49.768;8.636;2023-03-25T06:40:10;3.40;;;1.08;;
59434;SDS011;45241;49.768;8.636;2023-03-25T06:42:37;5.18;;;1.00;;
59434;SDS011;45241;49.768;8.636;2023-03-25T06:45:02;3.65;;;0.93;;
59434;SDS011;45241;49.768;8.636;2023-03-25T06:47:28;3.97;;;1.13;;
59434;SDS011;45241;49.768;8.636;2023-03-25T06:49:54;5.95;;;1.17;;
59434;SDS011;45241;49.768;8.636;2023-03-25T06:52:19;8.10;;;1.23;;
59434;SDS011;45241;49.768;8.636;2023-03-25T06:54:45;5.95;;;0.90;;
59434;SDS011;45241;49.768;8.636;2023-03-25T06:57:10;6.20;;;1.15;;
59434;SDS011;45241;49.768;8.636;2023-03-25T06:59:35;8.18;;;1.30;;
59434;SDS011;45241;49.768;8.636;2023-03-25T07:02:01;7.45;;;0.90;;
59434;SDS011;45241;49.768;8.636;2023-03-25T07:04:26;7.82;;;1.20;;
59434;SDS011;45241;49.768;8.636;2023-03-25T07:06:51;8.05;;;1.60;;
59434;SDS011;45241;49.768;8.636;2023-03-25T07:09:17;3.65;;;1.08;;
59434;SDS011;45241;49.768;8.636;2023-03-25T07:11:42;6.88;;;1.50;;
59434;SDS011;45241;49.768;8.636;2023-03-25T07:14:08;7.63;;;1.38;;
59434;SDS011;45241;49.768;8.636;2023-03-25T07:16:33;5.32;;;1.23;;
59434;SDS011;45241;49.768;8.636;2023-03-25T07:18:59;7.18;;;1.38;;
59434;SDS011;45241;49.768;8.636;2023-03-25T07:21:24;6.47;;;1.30;;
59434;SDS011;45241;49.768;8.636;2023-03-25T07:23:50;7.40;;;1.30;;
59434;SDS011;45241;49.768;8.636;2023-03-25T07:26:16;4.40;;;0.93;;
59434;SDS011;45241;49.768;8.636;2023-03-25T07:28:42;9.52;;;1.70;;
59434;SDS011;45241;49.768;8.636;2023-03-25T07:31:09;6.07;;;1.33;;
59434;SDS011;45241;49.768;8.636;2023-03-25T07:33:38;5.47;;;1.17;;
59434;SDS011;45241;49.768;8.636;2023-03-25T07:36:05;6.40;;;0.90;;
59434;SDS011;45241;49.768;8.636;2023-03-25T07:38:32;8.70;;;1.20;;
59434;SDS011;45241;49.768;8.636;2023-03-25T07:40:57;9.70;;;1.27;;
59434;SDS011;45241;49.768;8.636;2023-03-25T07:43:23;8.75;;;1.42;;
59434;SDS011;45241;49.768;8.636;2023-03-25T07:45:48;10.05;;;1.85;;
59434;SDS011;45241;49.768;8.636;2023-03-25T07:48:14;6.35;;;1.10;;
59434;SDS011;45241;49.768;8.636;2023-03-25T07:50:41;8.25;;;1.27;;
59434;SDS011;45241;49.768;8.636;2023-03-25T07:53:07;9.98;;;1.63;;
59434;SDS011;45241;49.768;8.636;2023-03-25T07:55:32;7.78;;;1.15;;
59434;SDS011;45241;49.768;8.636;2023-03-25T07:57:58;7.25;;;1.45;;
59434;SDS011;45241;49.768;8.636;2023-03-25T08:00:25;9.32;;;1.25;;
59434;SDS011;45241;49.768;8.636;2023-03-25T08:02:51;5.75;;;1.10;;
59434;SDS011;45241;49.768;8.636;2023-03-25T08:05:17;7.20;;;1.50;;
59434;SDS011;45241;49.768;8.636;2023-03-25T08:07:45;6.57;;;1.23;;
59434;SDS011;45241;49.768;8.636;2023-03-25T08:10:16;11.05;;;1.27;;
59434;SDS011;45241;49.768;8.636;2023-03-25T08:12:43;8.93;;;1.38;;
59434;SDS011;45241;49.768;8.636;2023-03-25T08:15:08;10.00;;;1.50;;
59434;SDS011;45241;49.768;8.636;2023-03-25T08:17:35;8.07;;;1.45;;
59434;SDS011;45241;49.768;8.636;2023-03-25T08:20:00;7.05;;;1.52;;
59434;SDS011;45241;49.768;8.636;2023-03-25T08:22:28;8.32;;;1.00;;
59434;SDS011;45241;49.768;8.636;2023-03-25T08:24:54;10.27;;;1.80;;
59434;SDS011;45241;49.768;8.636;2023-03-25T08:27:19;7.93;;;1.05;;
59434;SDS011;45241;49.768;8.636;2023-03-25T08:29:45;6.40;;;0.80;;
59434;SDS011;45241;49.768;8.636;2023-03-25T08:32:21;6.72;;;1.30;;
59434;SDS011;45241;49.768;8.636;2023-03-25T08:34:54;5.35;;;1.00;;
59434;SDS011;45241;49.768;8.636;2023-03-25T08:37:19;7.53;;;1.35;;
59434;SDS011;45241;49.768;8.636;2023-03-25T08:39:45;8.68;;;1.20;;
59434;SDS011;45241;49.768;8.636;2023-03-25T08:42:14;7.07;;;0.90;;
59434;SDS011;45241;49.768;8.636;2023-03-25T08:44:39;10.27;;;1.17;;
59434;SDS011;45241;49.768;8.636;2023-03-25T08:47:05;9.32;;;1.20;;
59434;SDS011;45241;49.768;8.636;2023-03-25T08:49:31;8.45;;;1.00;;
59434;SDS011;45241;49.768;8.636;2023-03-25T08:51:56;10.70;;;1.23;;
59434;SDS011;45241;49.768;8.636;2023-03-25T08:54:24;7.30;;;1.27;;
59434;SDS011;45241;49.768;8.636;2023-03-25T08:56:50;3.47;;;0.90;;
59434;SDS011;45241;49.768;8.636;2023-03-25T08:59:15;5.88;;;1.17;;
59434;SDS011;45241;49.768;8.636;2023-03-25T09:01:40;6.13;;;1.17;;
59434;SDS011;45241;49.768;8.636;2023-03-25T09:04:07;6.60;;;1.23;;
59434;SDS011;45241;49.768;8.636;2023-03-25T09:06:32;8.25;;;1.50;;
59434;SDS011;45241;49.768;8.636;2023-03-25T09:08:58;10.13;;;1.55;;
59434;SDS011;45241;49.768;8.636;2023-03-25T09:11:24;6.82;;;1.23;;
59434;SDS011;45241;49.768;8.636;2023-03-25T09:13:50;11.18;;;1.20;;
59434;SDS011;45241;49.768;8.636;2023-03-25T09:16:15;7.30;;;1.23;;
59434;SDS011;45241;49.768;8.636;2023-03-25T09:18:41;7.80;;;1.00;;
59434;SDS011;45241;49.768;8.636;2023-03-25T09:21:09;8.25;;;1.15;;
59434;SDS011;45241;49.768;8.636;2023-03-25T09:23:34;5.28;;;1.10;;
59434;SDS011;45241;49.768;8.636;2023-03-25T09:26:00;6.20;;;1.00;;
59434;SDS011;45241;49.768;8.636;2023-03-25T09:28:29;4.05;;;0.63;;
59434;SDS011;45241;49.768;8.636;2023-03-25T09:30:54;6.32;;;0.90;;
59434;SDS011;45241;49.768;8.636;2023-03-25T09:33:20;4.75;;;0.73;;
59434;SDS011;45241;49.768;8.636;2023-03-25T09:35:47;3.50;;;0.80;;
59434;SDS011;45241;49.768;8.636;2023-03-25T09:38:13;4.60;;;0.70;;
59434;SDS011;45241;49.768;8.636;2023-03-25T09:40:42;4.50;;;0.93;;
59434;SDS011;45241;49.768;8.636;2023-03-25T09:46:28;8.05;;;1.85;;
59434;SDS011;45241;49.768;8.636;2023-03-25T09:48:53;4.32;;;0.80;;
59434;SDS011;45241;49.768;8.636;2023-03-25T09:51:23;2.95;;;0.68;;
59434;SDS011;45241;49.768;8.636;2023-03-25T09:54:01;6.15;;;1.20;;
59434;SDS011;45241;49.768;8.636;2023-03-25T09:56:38;5.18;;;0.90;;
59434;SDS011;45241;49.768;8.636;2023-03-25T09:59:09;5.63;;;1.15;;
59434;SDS011;45241;49.768;8.636;2023-03-25T10:01:40;2.95;;;0.80;;
59434;SDS011;45241;49.768;8.636;2023-03-25T10:12:59;6.25;;;1.08;;
59434;SDS011;45241;49.768;8.636;2023-03-25T10:18:13;3.05;;;0.52;;
59434;SDS011;45241;49.768;8.636;2023-03-25T10:23:59;5.95;;;1.10;;
59434;SDS011;45241;49.768;8.636;2023-03-25T10:26:47;6.78;;;0.95;;
59434;SDS011;45241;49.768;8.636;2023-03-25T10:29:19;3.53;;;0.90;;
59434;SDS011;45241;49.768;8.636;2023-03-25T10:31:53;3.65;;;0.82;;
59434;SDS011;45241;49.768;8.636;2023-03-25T10:34:25;3.33;;;1.00;;
59434;SDS011;45241;49.768;8.636;2023-03-25T10:37:01;5.57;;;0.80;;
59434;SDS011;45241;49.768;8.636;2023-03-25T10:39:31;4.22;;;1.02;;
59434;SDS011;45241;49.768;8.636;2023-03-25T10:42:15;5.28;;;1.00;;
59434;SDS011;45241;49.768;8.636;2023-03-25T10:44:48;4.07;;;0.80;;
59434;SDS011;45241;49.768;8.636;2023-03-25T10:47:15;8.02;;;1.00;;
59434;SDS011;45241;49.768;8.636;2023-03-25T10:49:43;4.60;;;0.73;;
59434;SDS011;45241;49.768;8.636;2023-03-25T10:52:12;4.72;;;1.02;;
59434;SDS011;45241;49.768;8.636;2023-03-25T10:54:39;4.18;;;0.90;;
59434;SDS011;45241;49.768;8.636;2023-03-25T10:57:08;4.55;;;1.00;;
59434;SDS011;45241;49.768;8.636;2023-03-25T10:59:40;2.92;;;0.70;;
59434;SDS011;45241;49.768;8.636;2023-03-25T11:04:38;5.07;;;0.70;;
59434;SDS011;45241;49.768;8.636;2023-03-25T11:07:15;4.72;;;1.00;;
59434;SDS011;45241;49.768;8.636;2023-03-25T11:09:54;3.83;;;0.77;;
59434;SDS011;45241;49.768;8.636;2023-03-25T11:12:33;3.90;;;1.10;;
59434;SDS011;45241;49.768;8.636;2023-03-25T11:14:58;3.80;;;0.70;;
59434;SDS011;45241;49.768;8.636;2023-03-25T11:17:25;2.58;;;0.73;;
59434;SDS011;45241;49.768;8.636;2023-03-25T11:19:55;5.90;;;1.00;;
59434;SDS011;45241;49.768;8.636;2023-03-25T11:22:27;4.57;;;0.93;;
59434;SDS011;45241;49.768;8.636;2023-03-25T11:24:59;1.27;;;0.60;;
59434;SDS011;45241;49.768;8.636;2023-03-25T11:27:28;0.45;;;0.30;;
59434;SDS011;45241;49.768;8.636;2023-03-25T11:29:55;3.25;;;0.50;;
59434;SDS011;45241;49.768;8.636;2023-03-25T11:32:34;2.70;;;0.45;;
59434;SDS011;45241;49.768;8.636;2023-03-25T11:35:02;0.77;;;0.20;;
59434;SDS011;45241;49.768;8.636;2023-03-25T11:37:45;2.00;;;0.45;;
59434;SDS011;45241;49.768;8.636;2023-03-25T11:40:16;2.85;;;0.30;;
59434;SDS011;45241;49.768;8.636;2023-03-25T11:42:45;1.90;;;0.47;;
59434;SDS011;45241;49.768;8.636;2023-03-25T11:47:47;2.72;;;0.38;;
59434;SDS011;45241;49.768;8.636;2023-03-25T11:50:23;0.98;;;0.32;;
59434;SDS011;45241;49.768;8.636;2023-03-25T11:52:52;2.75;;;0.30;;
59434;SDS011;45241;49.768;8.636;2023-03-25T11:55:27;0.60;;;0.20;;
59434;SDS011;45241;49.768;8.636;2023-03-25T11:57:55;2.55;;;0.50;;
59434;SDS011;45241;49.768;8.636;2023-03-25T12:00:38;2.92;;;0.40;;
59434;SDS011;45241;49.768;8.636;2023-03-25T12:03:14;2.95;;;0.30;;
59434;SDS011;45241;49.768;8.636;2023-03-25T12:05:56;2.40;;;0.30;;
59434;SDS011;45241;49.768;8.636;2023-03-25T12:08:40;1.92;;;0.35;;
59434;SDS011;45241;49.768;8.636;2023-03-25T12:11:09;4.45;;;0.60;;
59434;SDS011;45241;49.768;8.636;2023-03-25T12:19:41;4.07;;;0.50;;
59434;SDS011;45241;49.768;8.636;2023-03-25T12:22:22;3.83;;;0.60;;
59434;SDS011;45241;49.768;8.636;2023-03-25T12:33:56;2.10;;;0.60;;
59434;SDS011;45241;49.768;8.636;2023-03-25T12:39:33;1.90;;;0.50;;
59434;SDS011;45241;49.768;8.636;2023-03-25T12:42:36;3.85;;;0.60;;
59434;SDS011;45241;49.768;8.636;2023-03-25T12:48:31;2.95;;;0.35;;
59434;SDS011;45241;49.768;8.636;2023-03-25T12:51:03;3.17;;;0.60;;
59434;SDS011;45241;49.768;8.636;2023-03-25T12:56:31;2.38;;;0.57;;
59434;SDS011;45241;49.768;8.636;2023-03-25T13:00:10;2.10;;;0.40;;
59434;SDS011;45241;49.768;8.636;2023-03-25T13:05:13;5.05;;;0.50;;
59434;SDS011;45241;49.768;8.636;2023-03-25T13:07:45;4.07;;;0.80;;
59434;SDS011;45241;49.768;8.636;2023-03-25T13:10:20;3.10;;;0.30;;
59434;SDS011;45241;49.768;8.636;2023-03-25T13:12:55;2.58;;;0.45;;
59434;SDS011;45241;49.768;8.636;2023-03-25T13:15:23;2.88;;;0.40;;
59434;SDS011;45241;49.768;8.636;2023-03-25T13:20:40;1.23;;;0.40;;
59434;SDS011;45241;49.768;8.636;2023-03-25T13:23:11;3.40;;;0.68;;
59434;SDS011;45241;49.768;8.636;2023-03-25T13:25:45;4.85;;;1.05;;
59434;SDS011;45241;49.768;8.636;2023-03-25T13:28:12;3.47;;;0.60;;
59434;SDS011;45241;49.768;8.636;2023-03-25T13:33:13;1.63;;;0.30;;
59434;SDS011;45241;49.768;8.636;2023-03-25T13:38:16;1.55;;;0.40;;
59434;SDS011;45241;49.768;8.636;2023-03-25T13:40:53;3.58;;;0.60;;
59434;SDS011;45241;49.768;8.636;2023-03-25T13:46:12;3.40;;;0.50;;
59434;SDS011;45241;49.768;8.636;2023-03-25T13:48:54;2.20;;;0.47;;
59434;SDS011;45241;49.768;8.636;2023-03-25T13:51:31;3.90;;;0.63;;
59434;SDS011;45241;49.768;8.636;2023-03-25T13:54:18;2.35;;;0.57;;
59434;SDS011;45241;49.768;8.636;2023-03-25T13:56:56;3.13;;;0.70;;
59434;SDS011;45241;49.768;8.636;2023-03-25T14:07:59;4.72;;;0.70;;
59434;SDS011;45241;49.768;8.636;2023-03-25T14:13:44;2.85;;;0.60;;
59434;SDS011;45241;49.768;8.636;2023-03-25T14:16:16;3.22;;;0.50;;
59434;SDS011;45241;49.768;8.636;2023-03-25T14:18:50;2.42;;;0.45;;
59434;SDS011;45241;49.768;8.636;2023-03-25T14:24:21;2.60;;;0.73;;
59434;SDS011;45241;49.768;8.636;2023-03-25T14:26:53;2.60;;;0.60;;
59434;SDS011;45241;49.768;8.636;2023-03-25T14:29:43;1.67;;;0.40;;
59434;SDS011;45241;49.768;8.636;2023-03-25T14:34:40;1.63;;;0.40;;
59434;SDS011;45241;49.768;8.636;2023-03-25T14:41:57;3.15;;;0.50;;
59434;SDS011;45241;49.768;8.636;2023-03-25T14:44:36;2.63;;;0.60;;
59434;SDS011;45241;49.768;8.636;2023-03-25T14:49:46;5.53;;;0.68;;
59434;SDS011;45241;49.768;8.636;2023-03-25T14:52:27;1.75;;;0.50;;
59434;SDS011;45241;49.768;8.636;2023-03-25T14:54:55;2.67;;;0.52;;
59434;SDS011;45241;49.768;8.636;2023-03-25T14:57:22;4.13;;;0.60;;
59434;SDS011;45241;49.768;8.636;2023-03-25T14:59:52;3.70;;;0.60;;
59434;SDS011;45241;49.768;8.636;2023-03-25T15:02:39;2.78;;;0.40;;
59434;SDS011;45241;49.768;8.636;2023-03-25T15:07:52;2.10;;;0.70;;
59434;SDS011;45241;49.768;8.636;2023-03-25T15:10:30;4.30;;;1.17;;
59434;SDS011;45241;49.768;8.636;2023-03-25T15:18:11;2.22;;;0.50;;
59434;SDS011;45241;49.768;8.636;2023-03-25T15:26:13;6.40;;;0.70;;
59434;SDS011;45241;49.768;8.636;2023-03-25T15:29:06;3.03;;;0.82;;
59434;SDS011;45241;49.768;8.636;2023-03-25T15:45:10;2.35;;;0.45;;
59434;SDS011;45241;49.768;8.636;2023-03-25T15:47:52;4.72;;;0.65;;
59434;SDS011;45241;49.768;8.636;2023-03-25T15:50:48;1.58;;;0.43;;
59434;SDS011;45241;49.768;8.636;2023-03-25T15:56:09;1.77;;;0.43;;
59434;SDS011;45241;49.768;8.636;2023-03-25T15:58:39;3.80;;;0.60;;
59434;SDS011;45241;49.768;8.636;2023-03-25T16:01:28;3.65;;;0.75;;
59434;SDS011;45241;49.768;8.636;2023-03-25T16:03:57;2.90;;;0.60;;
59434;SDS011;45241;49.768;8.636;2023-03-25T16:08:52;3.58;;;0.60;;
59434;SDS011;45241;49.768;8.636;2023-03-25T16:11:22;2.55;;;0.57;;
59434;SDS011;45241;49.768;8.636;2023-03-25T16:14:06;3.88;;;0.70;;
59434;SDS011;45241;49.768;8.636;2023-03-25T16:16:36;3.60;;;0.63;;
59434;SDS011;45241;49.768;8.636;2023-03-25T16:19:07;5.68;;;0.75;;
59434;SDS011;45241;49.768;8.636;2023-03-25T16:24:03;2.90;;;0.60;;
59434;SDS011;45241;49.768;8.636;2023-03-25T16:26:41;2.10;;;0.60;;
59434;SDS011;45241;49.768;8.636;2023-03-25T16:29:22;3.05;;;0.70;;
59434;SDS011;45241;49.768;8.636;2023-03-25T16:31:52;3.35;;;0.47;;
59434;SDS011;45241;49.768;8.636;2023-03-25T16:34:21;3.05;;;0.70;;
59434;SDS011;45241;49.768;8.636;2023-03-25T16:36:48;3.55;;;0.60;;
59434;SDS011;45241;49.768;8.636;2023-03-25T16:39:16;3.58;;;0.93;;
59434;SDS011;45241;49.768;8.636;2023-03-25T16:41:45;4.03;;;0.75;;
59434;SDS011;45241;49.768;8.636;2023-03-25T16:44:15;1.90;;;0.60;;
59434;SDS011;45241;49.768;8.636;2023-03-25T16:46:44;3.67;;;0.60;;
59434;SDS011;45241;49.768;8.636;2023-03-25T16:49:11;8.63;;;0.70;;
59434;SDS011;45241;49.768;8.636;2023-03-25T16:51:39;2.83;;;0.70;;
59434;SDS011;45241;49.768;8.636;2023-03-25T16:54:09;4.47;;;0.80;;
59434;SDS011;45241;49.768;8.636;2023-03-25T16:56:44;4.28;;;0.70;;
59434;SDS011;45241;49.768;8.636;2023-03-25T16:59:17;6.40;;;0.75;;
59434;SDS011;45241;49.768;8.636;2023-03-25T17:01:57;3.17;;;0.68;;
59434;SDS011;45241;49.768;8.636;2023-03-25T17:04:37;3.97;;;0.70;;
59434;SDS011;45241;49.768;8.636;2023-03-25T17:07:16;3.75;;;0.70;;
59434;SDS011;45241;49.768;8.636;2023-03-25T17:09:47;5.47;;;1.20;;
59434;SDS011;45241;49.768;8.636;2023-03-25T17:12:16;2.60;;;0.60;;
59434;SDS011;45241;49.768;8.636;2023-03-25T17:14:43;2.88;;;0.43;;
59434;SDS011;45241;49.768;8.636;2023-03-25T17:17:30;5.57;;;1.02;;
59434;SDS011;45241;49.768;8.636;2023-03-25T17:20:02;6.97;;;0.55;;
59434;SDS011;45241;49.768;8.636;2023-03-25T17:22:32;4.10;;;0.80;;
59434;SDS011;45241;49.768;8.636;2023-03-25T17:25:47;3.28;;;0.60;;
59434;SDS011;45241;49.768;8.636;2023-03-25T17:30:43;2.17;;;0.45;;
59434;SDS011;45241;49.768;8.636;2023-03-25T17:33:28;3.33;;;0.60;;
59434;SDS011;45241;49.768;8.636;2023-03-25T17:35:59;2.90;;;0.50;;